sensor_id;sensor_type;location;lat;lon;timestamp;P1;durP1;ratioP1;P2;durP2;ratioP2
66118;SDS011;52912;48.564;9.302;2022-08-04T00:00:29;3.38;;;2.03;;
66118;SDS011;52912;48.564;9.302;2022-08-04T00:03:11;4.70;;;1.90;;
66118;SDS011;52912;48.564;9.302;2022-08-04T00:05:44;4.25;;;2.20;;
66118;SDS011;52912;48.564;9.302;2022-08-04T00:08:21;7.68;;;2.00;;
66118;SDS011;52912;48.564;9.302;2022-08-04T00:10:58;4.68;;;2.20;;
66118;SDS011;52912;48.564;9.302;2022-08-04T00:13:25;5.88;;;2.00;;
66118;SDS011;52912;48.564;9.302;2022-08-04T00:15:52;3.50;;;1.90;;
66118;SDS011;52912;48.564;9.302;2022-08-04T00:18:22;4.70;;;1.88;;
66118;SDS011;52912;48.564;9.302;2022-08-04T00:20:51;4.10;;;2.17;;
66118;SDS011;52912;48.564;9.302;2022-08-04T00:23:21;5.10;;;1.90;;
66118;SDS011;52912;48.564;9.302;2022-08-04T00:25:47;2.08;;;1.85;;
66118;SDS011;52912;48.564;9.302;2022-08-04T00:28:13;3.88;;;1.90;;
66118;SDS011;52912;48.564;9.302;2022-08-04T00:30:40;3.63;;;2.05;;
66118;SDS011;52912;48.564;9.302;2022-08-04T00:33:06;4.55;;;2.25;;
66118;SDS011;52912;48.564;9.302;2022-08-04T00:35:32;5.47;;;2.17;;
66118;SDS011;52912;48.564;9.302;2022-08-04T00:37:59;11.10;;;2.10;;
66118;SDS011;52912;48.564;9.302;2022-08-04T00:40:30;3.65;;;2.20;;
66118;SDS011;52912;48.564;9.302;2022-08-04T00:43:04;3.35;;;2.17;;
66118;SDS011;52912;48.564;9.302;2022-08-04T00:45:43;4.60;;;2.30;;
66118;SDS011;52912;48.564;9.302;2022-08-04T00:48:31;4.90;;;1.98;;
66118;SDS011;52912;48.564;9.302;2022-08-04T00:51:14;3.33;;;2.00;;
66118;SDS011;52912;48.564;9.302;2022-08-04T00:53:50;5.47;;;2.35;;
66118;SDS011;52912;48.564;9.302;2022-08-04T00:56:29;3.28;;;2.40;;
66118;SDS011;52912;48.564;9.302;2022-08-04T00:59:09;4.97;;;2.38;;
66118;SDS011;52912;48.564;9.302;2022-08-04T01:01:52;6.20;;;2.40;;
66118;SDS011;52912;48.564;9.302;2022-08-04T01:04:23;5.28;;;2.20;;
66118;SDS011;52912;48.564;9.302;2022-08-04T01:07:05;7.13;;;2.30;;
66118;SDS011;52912;48.564;9.302;2022-08-04T01:09:42;4.68;;;2.17;;
66118;SDS011;52912;48.564;9.302;2022-08-04T01:12:20;3.58;;;2.40;;
66118;SDS011;52912;48.564;9.302;2022-08-04T01:15:03;4.75;;;1.90;;
66118;SDS011;52912;48.564;9.302;2022-08-04T01:17:35;6.57;;;2.47;;
66118;SDS011;52912;48.564;9.302;2022-08-04T01:20:08;4.03;;;2.30;;
66118;SDS011;52912;48.564;9.302;2022-08-04T01:26:01;6.32;;;2.53;;
66118;SDS011;52912;48.564;9.302;2022-08-04T01:31:41;3.28;;;2.17;;
66118;SDS011;52912;48.564;9.302;2022-08-04T01:34:15;2.72;;;2.10;;
66118;SDS011;52912;48.564;9.302;2022-08-04T01:36:45;4.70;;;2.17;;
66118;SDS011;52912;48.564;9.302;2022-08-04T01:39:11;4.50;;;2.35;;
66118;SDS011;52912;48.564;9.302;2022-08-04T01:41:38;4.68;;;2.10;;
66118;SDS011;52912;48.564;9.302;2022-08-04T01:44:04;5.68;;;1.90;;
66118;SDS011;52912;48.564;9.302;2022-08-04T01:46:33;4.68;;;2.25;;
66118;SDS011;52912;48.564;9.302;2022-08-04T01:49:00;3.47;;;2.00;;
66118;SDS011;52912;48.564;9.302;2022-08-04T01:51:26;4.20;;;2.10;;
66118;SDS011;52912;48.564;9.302;2022-08-04T01:53:52;6.00;;;2.10;;
66118;SDS011;52912;48.564;9.302;2022-08-04T01:56:18;3.05;;;2.10;;
66118;SDS011;52912;48.564;9.302;2022-08-04T01:58:45;4.38;;;2.28;;
66118;SDS011;52912;48.564;9.302;2022-08-04T02:01:11;2.63;;;1.90;;
66118;SDS011;52912;48.564;9.302;2022-08-04T02:03:39;6.50;;;2.20;;
66118;SDS011;52912;48.564;9.302;2022-08-04T02:06:10;5.00;;;2.25;;
66118;SDS011;52912;48.564;9.302;2022-08-04T02:08:45;3.97;;;2.17;;
66118;SDS011;52912;48.564;9.302;2022-08-04T02:11:17;3.03;;;2.00;;
66118;SDS011;52912;48.564;9.302;2022-08-04T02:13:47;3.22;;;2.10;;
66118;SDS011;52912;48.564;9.302;2022-08-04T02:16:21;4.38;;;2.30;;
66118;SDS011;52912;48.564;9.302;2022-08-04T02:18:56;3.20;;;2.00;;
66118;SDS011;52912;48.564;9.302;2022-08-04T02:21:26;4.47;;;2.10;;
66118;SDS011;52912;48.564;9.302;2022-08-04T02:23:55;2.83;;;2.10;;
66118;SDS011;52912;48.564;9.302;2022-08-04T02:26:25;4.93;;;2.15;;
66118;SDS011;52912;48.564;9.302;2022-08-04T02:28:54;3.05;;;1.80;;
66118;SDS011;52912;48.564;9.302;2022-08-04T02:31:30;3.85;;;2.20;;
66118;SDS011;52912;48.564;9.302;2022-08-04T02:34:00;3.90;;;2.30;;
66118;SDS011;52912;48.564;9.302;2022-08-04T02:36:34;3.80;;;2.22;;
66118;SDS011;52912;48.564;9.302;2022-08-04T02:39:01;4.57;;;2.05;;
66118;SDS011;52912;48.564;9.302;2022-08-04T02:41:29;3.78;;;1.88;;
66118;SDS011;52912;48.564;9.302;2022-08-04T02:43:56;4.53;;;2.13;;
66118;SDS011;52912;48.564;9.302;2022-08-04T02:46:23;3.53;;;2.30;;
66118;SDS011;52912;48.564;9.302;2022-08-04T02:48:49;4.90;;;2.50;;
66118;SDS011;52912;48.564;9.302;2022-08-04T02:51:19;4.93;;;2.50;;
66118;SDS011;52912;48.564;9.302;2022-08-04T02:53:49;4.85;;;2.33;;
66118;SDS011;52912;48.564;9.302;2022-08-04T02:56:18;7.50;;;2.47;;
66118;SDS011;52912;48.564;9.302;2022-08-04T02:58:44;5.47;;;2.20;;
66118;SDS011;52912;48.564;9.302;2022-08-04T03:01:13;4.63;;;2.58;;
66118;SDS011;52912;48.564;9.302;2022-08-04T03:03:39;4.55;;;2.10;;
66118;SDS011;52912;48.564;9.302;2022-08-04T03:12:38;6.00;;;2.08;;
66118;SDS011;52912;48.564;9.302;2022-08-04T03:15:34;9.45;;;2.67;;
66118;SDS011;52912;48.564;9.302;2022-08-04T03:27:45;2.45;;;2.03;;
66118;SDS011;52912;48.564;9.302;2022-08-04T03:30:40;5.40;;;2.40;;
66118;SDS011;52912;48.564;9.302;2022-08-04T03:33:23;5.97;;;2.40;;
66118;SDS011;52912;48.564;9.302;2022-08-04T03:36:37;3.58;;;2.40;;
66118;SDS011;52912;48.564;9.302;2022-08-04T03:42:46;10.38;;;2.30;;
66118;SDS011;52912;48.564;9.302;2022-08-04T03:49:09;6.35;;;2.38;;
66118;SDS011;52912;48.564;9.302;2022-08-04T03:52:05;4.50;;;2.30;;
66118;SDS011;52912;48.564;9.302;2022-08-04T03:54:43;5.97;;;2.50;;
66118;SDS011;52912;48.564;9.302;2022-08-04T04:00:25;5.93;;;2.15;;
66118;SDS011;52912;48.564;9.302;2022-08-04T04:12:13;3.00;;;2.03;;
66118;SDS011;52912;48.564;9.302;2022-08-04T04:14:59;3.35;;;2.00;;
66118;SDS011;52912;48.564;9.302;2022-08-04T04:17:41;4.25;;;2.33;;
66118;SDS011;52912;48.564;9.302;2022-08-04T04:20:27;5.20;;;2.00;;
66118;SDS011;52912;48.564;9.302;2022-08-04T04:23:14;2.58;;;2.00;;
66118;SDS011;52912;48.564;9.302;2022-08-04T04:25:58;7.47;;;2.30;;
66118;SDS011;52912;48.564;9.302;2022-08-04T04:28:37;3.33;;;2.17;;
66118;SDS011;52912;48.564;9.302;2022-08-04T04:31:22;4.43;;;2.25;;
66118;SDS011;52912;48.564;9.302;2022-08-04T04:34:15;5.50;;;2.30;;
66118;SDS011;52912;48.564;9.302;2022-08-04T04:36:49;4.30;;;2.20;;
66118;SDS011;52912;48.564;9.302;2022-08-04T04:39:30;4.10;;;2.22;;
66118;SDS011;52912;48.564;9.302;2022-08-04T04:42:23;2.88;;;2.17;;
66118;SDS011;52912;48.564;9.302;2022-08-04T04:45:11;3.95;;;2.53;;
66118;SDS011;52912;48.564;9.302;2022-08-04T04:47:54;8.85;;;2.50;;
66118;SDS011;52912;48.564;9.302;2022-08-04T04:50:27;3.22;;;2.25;;
66118;SDS011;52912;48.564;9.302;2022-08-04T04:53:02;4.20;;;2.40;;
66118;SDS011;52912;48.564;9.302;2022-08-04T04:55:39;4.32;;;2.38;;
66118;SDS011;52912;48.564;9.302;2022-08-04T04:58:07;3.65;;;2.30;;
66118;SDS011;52912;48.564;9.302;2022-08-04T05:00:42;6.50;;;2.10;;
66118;SDS011;52912;48.564;9.302;2022-08-04T05:03:28;5.53;;;2.38;;
66118;SDS011;52912;48.564;9.302;2022-08-04T05:06:19;4.20;;;2.63;;
66118;SDS011;52912;48.564;9.302;2022-08-04T05:09:02;6.00;;;2.53;;
66118;SDS011;52912;48.564;9.302;2022-08-04T05:11:52;3.40;;;2.33;;
66118;SDS011;52912;48.564;9.302;2022-08-04T05:14:33;3.63;;;2.10;;
66118;SDS011;52912;48.564;9.302;2022-08-04T05:17:03;2.50;;;2.15;;
66118;SDS011;52912;48.564;9.302;2022-08-04T05:19:41;3.95;;;2.22;;
66118;SDS011;52912;48.564;9.302;2022-08-04T05:22:15;3.95;;;2.50;;
66118;SDS011;52912;48.564;9.302;2022-08-04T05:24:46;5.50;;;2.60;;
66118;SDS011;52912;48.564;9.302;2022-08-04T05:27:16;5.25;;;2.70;;
66118;SDS011;52912;48.564;9.302;2022-08-04T05:32:13;5.00;;;2.63;;
66118;SDS011;52912;48.564;9.302;2022-08-04T05:34:43;3.75;;;2.53;;
66118;SDS011;52912;48.564;9.302;2022-08-04T05:37:14;3.25;;;2.40;;
66118;SDS011;52912;48.564;9.302;2022-08-04T05:39:41;3.03;;;2.28;;
66118;SDS011;52912;48.564;9.302;2022-08-04T05:42:10;5.60;;;2.55;;
66118;SDS011;52912;48.564;9.302;2022-08-04T05:44:36;5.50;;;2.30;;
66118;SDS011;52912;48.564;9.302;2022-08-04T05:47:03;5.10;;;2.38;;
66118;SDS011;52912;48.564;9.302;2022-08-04T05:49:29;5.18;;;2.10;;
66118;SDS011;52912;48.564;9.302;2022-08-04T05:51:59;3.67;;;2.05;;
66118;SDS011;52912;48.564;9.302;2022-08-04T05:54:26;3.75;;;2.35;;
66118;SDS011;52912;48.564;9.302;2022-08-04T05:56:52;4.30;;;2.40;;
66118;SDS011;52912;48.564;9.302;2022-08-04T05:59:19;4.18;;;2.10;;
66118;SDS011;52912;48.564;9.302;2022-08-04T06:01:45;6.18;;;2.38;;
66118;SDS011;52912;48.564;9.302;2022-08-04T06:04:12;5.28;;;1.98;;
66118;SDS011;52912;48.564;9.302;2022-08-04T06:06:39;5.63;;;2.10;;
66118;SDS011;52912;48.564;9.302;2022-08-04T06:09:07;4.65;;;1.98;;
66118;SDS011;52912;48.564;9.302;2022-08-04T06:11:33;4.45;;;2.38;;
66118;SDS011;52912;48.564;9.302;2022-08-04T06:14:01;4.32;;;2.25;;
66118;SDS011;52912;48.564;9.302;2022-08-04T06:16:34;5.30;;;2.03;;
66118;SDS011;52912;48.564;9.302;2022-08-04T06:19:03;10.77;;;3.00;;
66118;SDS011;52912;48.564;9.302;2022-08-04T06:21:31;2.75;;;2.00;;
66118;SDS011;52912;48.564;9.302;2022-08-04T06:23:59;6.35;;;2.17;;
66118;SDS011;52912;48.564;9.302;2022-08-04T06:26:26;3.55;;;2.20;;
66118;SDS011;52912;48.564;9.302;2022-08-04T06:28:53;4.13;;;2.25;;
66118;SDS011;52912;48.564;9.302;2022-08-04T06:31:21;6.30;;;2.33;;
66118;SDS011;52912;48.564;9.302;2022-08-04T06:33:48;4.77;;;2.20;;
66118;SDS011;52912;48.564;9.302;2022-08-04T06:36:14;5.75;;;1.90;;
66118;SDS011;52912;48.564;9.302;2022-08-04T06:38:40;4.15;;;2.20;;
66118;SDS011;52912;48.564;9.302;2022-08-04T06:41:07;6.00;;;2.10;;
66118;SDS011;52912;48.564;9.302;2022-08-04T06:43:34;3.90;;;2.05;;
66118;SDS011;52912;48.564;9.302;2022-08-04T06:46:02;6.30;;;2.17;;
66118;SDS011;52912;48.564;9.302;2022-08-04T06:48:29;5.50;;;2.15;;
66118;SDS011;52912;48.564;9.302;2022-08-04T06:50:55;4.75;;;2.08;;
66118;SDS011;52912;48.564;9.302;2022-08-04T06:53:22;5.65;;;2.35;;
66118;SDS011;52912;48.564;9.302;2022-08-04T06:55:49;3.65;;;2.47;;
66118;SDS011;52912;48.564;9.302;2022-08-04T06:58:15;5.03;;;3.17;;
66118;SDS011;52912;48.564;9.302;2022-08-04T07:00:44;3.53;;;2.00;;
66118;SDS011;52912;48.564;9.302;2022-08-04T07:03:11;5.05;;;2.33;;
66118;SDS011;52912;48.564;9.302;2022-08-04T07:05:38;5.05;;;2.22;;
66118;SDS011;52912;48.564;9.302;2022-08-04T07:08:04;4.15;;;2.13;;
66118;SDS011;52912;48.564;9.302;2022-08-04T07:10:30;6.68;;;2.30;;
66118;SDS011;52912;48.564;9.302;2022-08-04T07:12:57;5.30;;;2.42;;
66118;SDS011;52912;48.564;9.302;2022-08-04T07:15:24;2.80;;;2.10;;
66118;SDS011;52912;48.564;9.302;2022-08-04T07:17:51;4.07;;;2.30;;
66118;SDS011;52912;48.564;9.302;2022-08-04T07:20:18;5.95;;;2.28;;
66118;SDS011;52912;48.564;9.302;2022-08-04T07:22:44;4.25;;;2.28;;
66118;SDS011;52912;48.564;9.302;2022-08-04T07:25:11;4.03;;;2.25;;
66118;SDS011;52912;48.564;9.302;2022-08-04T07:27:40;5.93;;;2.10;;
66118;SDS011;52912;48.564;9.302;2022-08-04T07:30:07;3.38;;;2.20;;
66118;SDS011;52912;48.564;9.302;2022-08-04T07:32:33;4.65;;;2.50;;
66118;SDS011;52912;48.564;9.302;2022-08-04T07:35:01;5.07;;;2.63;;
66118;SDS011;52912;48.564;9.302;2022-08-04T07:37:27;3.33;;;2.20;;
66118;SDS011;52912;48.564;9.302;2022-08-04T07:39:52;4.93;;;2.60;;
66118;SDS011;52912;48.564;9.302;2022-08-04T07:42:18;4.60;;;2.30;;
66118;SDS011;52912;48.564;9.302;2022-08-04T07:44:44;6.45;;;2.45;;
66118;SDS011;52912;48.564;9.302;2022-08-04T07:47:10;7.70;;;2.67;;
66118;SDS011;52912;48.564;9.302;2022-08-04T07:49:35;5.43;;;2.53;;
66118;SDS011;52912;48.564;9.302;2022-08-04T07:52:03;4.75;;;2.33;;
66118;SDS011;52912;48.564;9.302;2022-08-04T07:54:30;4.03;;;2.47;;
66118;SDS011;52912;48.564;9.302;2022-08-04T07:56:57;7.10;;;2.50;;
66118;SDS011;52912;48.564;9.302;2022-08-04T07:59:22;4.05;;;2.40;;
66118;SDS011;52912;48.564;9.302;2022-08-04T08:01:48;5.43;;;2.40;;
66118;SDS011;52912;48.564;9.302;2022-08-04T08:04:14;5.05;;;2.30;;
66118;SDS011;52912;48.564;9.302;2022-08-04T08:06:40;4.45;;;2.55;;
66118;SDS011;52912;48.564;9.302;2022-08-04T08:09:08;3.65;;;2.30;;
66118;SDS011;52912;48.564;9.302;2022-08-04T08:11:35;4.30;;;2.50;;
66118;SDS011;52912;48.564;9.302;2022-08-04T08:14:01;5.65;;;2.50;;
66118;SDS011;52912;48.564;9.302;2022-08-04T08:16:27;6.32;;;2.72;;
66118;SDS011;52912;48.564;9.302;2022-08-04T08:18:53;4.40;;;2.55;;
66118;SDS011;52912;48.564;9.302;2022-08-04T08:21:19;4.10;;;2.40;;
66118;SDS011;52912;48.564;9.302;2022-08-04T08:23:45;6.20;;;2.88;;
66118;SDS011;52912;48.564;9.302;2022-08-04T08:26:12;3.50;;;2.30;;
66118;SDS011;52912;48.564;9.302;2022-08-04T08:28:38;4.38;;;2.40;;
66118;SDS011;52912;48.564;9.302;2022-08-04T08:31:04;4.35;;;2.45;;
66118;SDS011;52912;48.564;9.302;2022-08-04T08:33:30;4.47;;;2.35;;
66118;SDS011;52912;48.564;9.302;2022-08-04T08:35:59;5.78;;;2.45;;
66118;SDS011;52912;48.564;9.302;2022-08-04T08:38:34;4.45;;;2.40;;
66118;SDS011;52912;48.564;9.302;2022-08-04T08:47:24;3.70;;;2.10;;
66118;SDS011;52912;48.564;9.302;2022-08-04T08:50:02;5.10;;;2.33;;
66118;SDS011;52912;48.564;9.302;2022-08-04T08:52:53;2.88;;;2.45;;
66118;SDS011;52912;48.564;9.302;2022-08-04T08:55:28;4.75;;;2.05;;
66118;SDS011;52912;48.564;9.302;2022-08-04T08:58:09;3.42;;;2.20;;
66118;SDS011;52912;48.564;9.302;2022-08-04T09:00:51;4.20;;;2.20;;
66118;SDS011;52912;48.564;9.302;2022-08-04T09:06:08;5.93;;;2.30;;
66118;SDS011;52912;48.564;9.302;2022-08-04T09:08:59;5.65;;;2.10;;
66118;SDS011;52912;48.564;9.302;2022-08-04T09:11:36;3.00;;;2.50;;
66118;SDS011;52912;48.564;9.302;2022-08-04T09:14:09;2.72;;;2.10;;
66118;SDS011;52912;48.564;9.302;2022-08-04T09:16:41;4.18;;;2.20;;
66118;SDS011;52912;48.564;9.302;2022-08-04T09:19:11;5.10;;;2.10;;
66118;SDS011;52912;48.564;9.302;2022-08-04T09:21:44;2.88;;;2.22;;
66118;SDS011;52912;48.564;9.302;2022-08-04T09:24:17;4.07;;;2.33;;
66118;SDS011;52912;48.564;9.302;2022-08-04T09:26:48;7.47;;;2.25;;
66118;SDS011;52912;48.564;9.302;2022-08-04T09:29:19;8.13;;;2.22;;
66118;SDS011;52912;48.564;9.302;2022-08-04T09:31:52;3.72;;;2.10;;
66118;SDS011;52912;48.564;9.302;2022-08-04T09:34:28;3.42;;;2.20;;
66118;SDS011;52912;48.564;9.302;2022-08-04T09:37:00;4.97;;;1.85;;
66118;SDS011;52912;48.564;9.302;2022-08-04T09:39:32;4.55;;;1.90;;
66118;SDS011;52912;48.564;9.302;2022-08-04T09:42:08;3.58;;;2.10;;
66118;SDS011;52912;48.564;9.302;2022-08-04T09:44:46;2.27;;;2.03;;
66118;SDS011;52912;48.564;9.302;2022-08-04T09:47:18;2.85;;;2.10;;
66118;SDS011;52912;48.564;9.302;2022-08-04T09:49:49;3.88;;;2.13;;
66118;SDS011;52912;48.564;9.302;2022-08-04T09:52:24;2.42;;;2.10;;
66118;SDS011;52912;48.564;9.302;2022-08-04T09:54:58;4.85;;;2.10;;
66118;SDS011;52912;48.564;9.302;2022-08-04T09:57:35;2.83;;;2.10;;
66118;SDS011;52912;48.564;9.302;2022-08-04T10:00:11;2.67;;;2.05;;
66118;SDS011;52912;48.564;9.302;2022-08-04T10:02:39;3.40;;;2.08;;
66118;SDS011;52912;48.564;9.302;2022-08-04T10:05:08;3.20;;;2.22;;
66118;SDS011;52912;48.564;9.302;2022-08-04T10:10:32;3.50;;;2.15;;
66118;SDS011;52912;48.564;9.302;2022-08-04T10:13:04;8.75;;;2.10;;
66118;SDS011;52912;48.564;9.302;2022-08-04T10:15:50;2.10;;;1.88;;
66118;SDS011;52912;48.564;9.302;2022-08-04T10:18:34;5.75;;;2.28;;
66118;SDS011;52912;48.564;9.302;2022-08-04T10:21:10;5.50;;;2.33;;
66118;SDS011;52912;48.564;9.302;2022-08-04T10:23:46;3.17;;;2.17;;
66118;SDS011;52912;48.564;9.302;2022-08-04T10:26:30;4.65;;;2.10;;
66118;SDS011;52912;48.564;9.302;2022-08-04T10:29:02;4.03;;;2.03;;
66118;SDS011;52912;48.564;9.302;2022-08-04T10:31:34;3.85;;;1.98;;
66118;SDS011;52912;48.564;9.302;2022-08-04T10:34:05;5.38;;;1.95;;
66118;SDS011;52912;48.564;9.302;2022-08-04T10:36:38;2.20;;;1.95;;
66118;SDS011;52912;48.564;9.302;2022-08-04T10:39:10;2.20;;;2.00;;
66118;SDS011;52912;48.564;9.302;2022-08-04T10:41:45;4.35;;;2.00;;
66118;SDS011;52912;48.564;9.302;2022-08-04T10:46:48;2.17;;;1.38;;
66118;SDS011;52912;48.564;9.302;2022-08-04T10:49:20;2.42;;;1.60;;
66118;SDS011;52912;48.564;9.302;2022-08-04T10:51:49;4.03;;;1.70;;
66118;SDS011;52912;48.564;9.302;2022-08-04T10:54:18;2.60;;;1.67;;
66118;SDS011;52912;48.564;9.302;2022-08-04T10:56:49;2.42;;;1.55;;
66118;SDS011;52912;48.564;9.302;2022-08-04T10:59:20;4.65;;;1.83;;
66118;SDS011;52912;48.564;9.302;2022-08-04T11:01:54;1.70;;;1.60;;
66118;SDS011;52912;48.564;9.302;2022-08-04T11:04:26;3.17;;;1.80;;
66118;SDS011;52912;48.564;9.302;2022-08-04T11:07:04;3.20;;;1.65;;
66118;SDS011;52912;48.564;9.302;2022-08-04T11:09:32;3.35;;;1.60;;
66118;SDS011;52912;48.564;9.302;2022-08-04T11:12:00;4.50;;;1.65;;
66118;SDS011;52912;48.564;9.302;2022-08-04T11:14:32;1.70;;;1.60;;
66118;SDS011;52912;48.564;9.302;2022-08-04T11:17:05;2.97;;;1.70;;
66118;SDS011;52912;48.564;9.302;2022-08-04T11:19:36;4.38;;;1.70;;
66118;SDS011;52912;48.564;9.302;2022-08-04T11:22:13;3.40;;;1.80;;
66118;SDS011;52912;48.564;9.302;2022-08-04T11:24:54;2.60;;;1.70;;
66118;SDS011;52912;48.564;9.302;2022-08-04T11:27:27;4.10;;;1.65;;
66118;SDS011;52912;48.564;9.302;2022-08-04T11:30:02;2.70;;;1.70;;
66118;SDS011;52912;48.564;9.302;2022-08-04T11:32:33;5.15;;;1.55;;
66118;SDS011;52912;48.564;9.302;2022-08-04T11:35:05;1.98;;;1.55;;
66118;SDS011;52912;48.564;9.302;2022-08-04T11:37:40;3.28;;;1.60;;
66118;SDS011;52912;48.564;9.302;2022-08-04T11:40:10;3.58;;;1.70;;
66118;SDS011;52912;48.564;9.302;2022-08-04T11:42:49;2.33;;;1.70;;
66118;SDS011;52912;48.564;9.302;2022-08-04T11:45:20;2.85;;;1.50;;
66118;SDS011;52912;48.564;9.302;2022-08-04T11:47:54;2.90;;;1.63;;
66118;SDS011;52912;48.564;9.302;2022-08-04T11:50:24;2.10;;;1.80;;
66118;SDS011;52912;48.564;9.302;2022-08-04T11:52:56;3.35;;;1.75;;
66118;SDS011;52912;48.564;9.302;2022-08-04T11:55:24;3.90;;;1.73;;
66118;SDS011;52912;48.564;9.302;2022-08-04T11:57:52;3.40;;;1.95;;
66118;SDS011;52912;48.564;9.302;2022-08-04T12:00:19;2.58;;;1.80;;
66118;SDS011;52912;48.564;9.302;2022-08-04T12:05:45;1.85;;;1.70;;
66118;SDS011;52912;48.564;9.302;2022-08-04T12:08:21;2.13;;;1.90;;
66118;SDS011;52912;48.564;9.302;2022-08-04T12:10:56;2.40;;;1.73;;
66118;SDS011;52912;48.564;9.302;2022-08-04T12:13:30;2.50;;;1.70;;
66118;SDS011;52912;48.564;9.302;2022-08-04T12:16:05;3.47;;;2.05;;
66118;SDS011;52912;48.564;9.302;2022-08-04T12:18:41;3.65;;;1.90;;
66118;SDS011;52912;48.564;9.302;2022-08-04T12:21:22;6.40;;;2.05;;
66118;SDS011;52912;48.564;9.302;2022-08-04T12:23:52;3.55;;;1.88;;
66118;SDS011;52912;48.564;9.302;2022-08-04T12:26:24;3.85;;;1.92;;
66118;SDS011;52912;48.564;9.302;2022-08-04T12:28:54;2.08;;;1.85;;
66118;SDS011;52912;48.564;9.302;2022-08-04T12:31:25;3.00;;;1.88;;
66118;SDS011;52912;48.564;9.302;2022-08-04T12:33:55;2.03;;;1.70;;
66118;SDS011;52912;48.564;9.302;2022-08-04T12:36:25;3.28;;;1.90;;
66118;SDS011;52912;48.564;9.302;2022-08-04T12:38:58;6.95;;;1.90;;
66118;SDS011;52912;48.564;9.302;2022-08-04T12:41:27;4.32;;;1.80;;
66118;SDS011;52912;48.564;9.302;2022-08-04T12:44:03;3.78;;;1.90;;
66118;SDS011;52912;48.564;9.302;2022-08-04T12:46:30;3.30;;;1.88;;
66118;SDS011;52912;48.564;9.302;2022-08-04T12:48:59;3.63;;;1.85;;
66118;SDS011;52912;48.564;9.302;2022-08-04T12:51:26;2.85;;;1.80;;
66118;SDS011;52912;48.564;9.302;2022-08-04T12:53:53;3.77;;;2.10;;
66118;SDS011;52912;48.564;9.302;2022-08-04T12:56:23;2.90;;;1.70;;
66118;SDS011;52912;48.564;9.302;2022-08-04T12:58:51;2.83;;;1.80;;
66118;SDS011;52912;48.564;9.302;2022-08-04T13:01:18;2.15;;;1.90;;
66118;SDS011;52912;48.564;9.302;2022-08-04T13:03:48;2.13;;;1.80;;
66118;SDS011;52912;48.564;9.302;2022-08-04T13:06:25;3.15;;;1.63;;
66118;SDS011;52912;48.564;9.302;2022-08-04T13:08:54;4.47;;;1.95;;
66118;SDS011;52912;48.564;9.302;2022-08-04T13:11:26;3.97;;;1.92;;
66118;SDS011;52912;48.564;9.302;2022-08-04T13:13:53;6.20;;;1.90;;
66118;SDS011;52912;48.564;9.302;2022-08-04T13:16:28;3.08;;;1.90;;
66118;SDS011;52912;48.564;9.302;2022-08-04T13:18:55;4.32;;;2.00;;
66118;SDS011;52912;48.564;9.302;2022-08-04T13:21:22;3.42;;;1.88;;
66118;SDS011;52912;48.564;9.302;2022-08-04T13:23:56;4.35;;;2.10;;
66118;SDS011;52912;48.564;9.302;2022-08-04T13:26:26;4.60;;;2.10;;
66118;SDS011;52912;48.564;9.302;2022-08-04T13:31:22;2.42;;;2.10;;
66118;SDS011;52912;48.564;9.302;2022-08-04T13:33:50;2.95;;;2.08;;
66118;SDS011;52912;48.564;9.302;2022-08-04T13:36:18;4.28;;;2.10;;
66118;SDS011;52912;48.564;9.302;2022-08-04T13:38:52;3.85;;;2.03;;
66118;SDS011;52912;48.564;9.302;2022-08-04T13:41:19;3.80;;;1.90;;
66118;SDS011;52912;48.564;9.302;2022-08-04T13:43:47;5.13;;;2.10;;
66118;SDS011;52912;48.564;9.302;2022-08-04T13:48:41;2.92;;;2.00;;
66118;SDS011;52912;48.564;9.302;2022-08-04T13:51:09;5.38;;;1.90;;
66118;SDS011;52912;48.564;9.302;2022-08-04T13:53:37;7.07;;;1.98;;
66118;SDS011;52912;48.564;9.302;2022-08-04T13:56:06;6.32;;;2.13;;
66118;SDS011;52912;48.564;9.302;2022-08-04T13:58:34;3.85;;;2.00;;
66118;SDS011;52912;48.564;9.302;2022-08-04T14:01:06;3.53;;;1.90;;
66118;SDS011;52912;48.564;9.302;2022-08-04T14:03:37;2.78;;;2.10;;
66118;SDS011;52912;48.564;9.302;2022-08-04T14:06:05;4.22;;;2.10;;
66118;SDS011;52912;48.564;9.302;2022-08-04T14:08:34;2.15;;;1.80;;
66118;SDS011;52912;48.564;9.302;2022-08-04T14:11:07;6.63;;;2.10;;
66118;SDS011;52912;48.564;9.302;2022-08-04T14:13:33;4.05;;;1.90;;
66118;SDS011;52912;48.564;9.302;2022-08-04T14:15:59;5.10;;;2.05;;
66118;SDS011;52912;48.564;9.302;2022-08-04T14:18:26;3.75;;;2.03;;
66118;SDS011;52912;48.564;9.302;2022-08-04T14:21:00;3.28;;;2.00;;
66118;SDS011;52912;48.564;9.302;2022-08-04T14:23:29;3.22;;;2.20;;
66118;SDS011;52912;48.564;9.302;2022-08-04T14:26:18;3.25;;;2.00;;
66118;SDS011;52912;48.564;9.302;2022-08-04T14:28:46;3.63;;;2.10;;
66118;SDS011;52912;48.564;9.302;2022-08-04T14:31:13;4.78;;;1.90;;
66118;SDS011;52912;48.564;9.302;2022-08-04T14:33:40;2.85;;;2.13;;
66118;SDS011;52912;48.564;9.302;2022-08-04T14:36:07;3.35;;;2.00;;
66118;SDS011;52912;48.564;9.302;2022-08-04T14:38:42;3.47;;;2.10;;
66118;SDS011;52912;48.564;9.302;2022-08-04T14:41:09;5.22;;;2.10;;
66118;SDS011;52912;48.564;9.302;2022-08-04T14:43:39;2.17;;;1.90;;
66118;SDS011;52912;48.564;9.302;2022-08-04T14:46:07;3.30;;;1.90;;
66118;SDS011;52912;48.564;9.302;2022-08-04T14:48:32;3.85;;;1.95;;
66118;SDS011;52912;48.564;9.302;2022-08-04T14:50:58;3.88;;;2.03;;
66118;SDS011;52912;48.564;9.302;2022-08-04T14:53:24;5.00;;;1.90;;
66118;SDS011;52912;48.564;9.302;2022-08-04T14:55:52;4.65;;;2.08;;
66118;SDS011;52912;48.564;9.302;2022-08-04T14:58:20;4.20;;;1.95;;
66118;SDS011;52912;48.564;9.302;2022-08-04T15:00:47;3.25;;;1.80;;
66118;SDS011;52912;48.564;9.302;2022-08-04T15:03:13;4.78;;;2.05;;
66118;SDS011;52912;48.564;9.302;2022-08-04T15:05:42;4.55;;;2.13;;
66118;SDS011;52912;48.564;9.302;2022-08-04T15:13:03;6.13;;;2.33;;
66118;SDS011;52912;48.564;9.302;2022-08-04T15:15:28;3.47;;;2.20;;
66118;SDS011;52912;48.564;9.302;2022-08-04T15:17:55;2.83;;;2.00;;
66118;SDS011;52912;48.564;9.302;2022-08-04T15:20:20;2.78;;;2.10;;
66118;SDS011;52912;48.564;9.302;2022-08-04T15:22:46;4.05;;;2.10;;
66118;SDS011;52912;48.564;9.302;2022-08-04T15:25:12;3.20;;;2.00;;
66118;SDS011;52912;48.564;9.302;2022-08-04T15:27:39;2.63;;;1.90;;
66118;SDS011;52912;48.564;9.302;2022-08-04T15:30:07;3.03;;;2.00;;
66118;SDS011;52912;48.564;9.302;2022-08-04T15:32:36;3.33;;;2.00;;
66118;SDS011;52912;48.564;9.302;2022-08-04T15:35:04;2.63;;;2.13;;
66118;SDS011;52912;48.564;9.302;2022-08-04T15:37:36;2.58;;;2.10;;
66118;SDS011;52912;48.564;9.302;2022-08-04T15:40:22;3.10;;;2.00;;
66118;SDS011;52912;48.564;9.302;2022-08-04T15:42:59;8.73;;;2.13;;
66118;SDS011;52912;48.564;9.302;2022-08-04T15:45:41;5.47;;;2.20;;
66118;SDS011;52912;48.564;9.302;2022-08-04T15:51:03;5.13;;;2.20;;
66118;SDS011;52912;48.564;9.302;2022-08-04T15:53:31;6.63;;;2.13;;
66118;SDS011;52912;48.564;9.302;2022-08-04T15:59:08;4.95;;;2.05;;
66118;SDS011;52912;48.564;9.302;2022-08-04T16:01:35;3.03;;;2.20;;
66118;SDS011;52912;48.564;9.302;2022-08-04T16:04:04;4.95;;;2.08;;
66118;SDS011;52912;48.564;9.302;2022-08-04T16:06:45;4.40;;;2.20;;
66118;SDS011;52912;48.564;9.302;2022-08-04T16:09:19;3.97;;;2.25;;
66118;SDS011;52912;48.564;9.302;2022-08-04T16:11:49;4.53;;;2.17;;
66118;SDS011;52912;48.564;9.302;2022-08-04T16:14:15;4.07;;;2.05;;
66118;SDS011;52912;48.564;9.302;2022-08-04T16:16:46;2.88;;;2.15;;
66118;SDS011;52912;48.564;9.302;2022-08-04T16:19:16;5.65;;;2.10;;
66118;SDS011;52912;48.564;9.302;2022-08-04T16:21:50;2.45;;;2.03;;
66118;SDS011;52912;48.564;9.302;2022-08-04T16:24:17;2.30;;;2.10;;
66118;SDS011;52912;48.564;9.302;2022-08-04T16:26:48;2.88;;;1.98;;
66118;SDS011;52912;48.564;9.302;2022-08-04T16:32:08;7.80;;;2.42;;
66118;SDS011;52912;48.564;9.302;2022-08-04T16:34:36;4.63;;;2.13;;